createdAt,value
2017-12-29T00:01:44.573Z,77.00
2017-12-29T00:04:12.135Z,77.30
2017-12-29T00:06:39.603Z,77.80
2017-12-29T00:09:07.161Z,77.30
2017-12-29T00:11:34.719Z,77.50
2017-12-29T00:14:02.275Z,77.70
2017-12-29T00:16:29.852Z,77.90
2017-12-29T00:18:57.418Z,78.00
2017-12-29T00:21:24.957Z,78.20
2017-12-29T00:23:52.414Z,78.40
2017-12-29T00:26:19.880Z,78.10
2017-12-29T00:28:48.100Z,78.10
2017-12-29T00:31:15.561Z,78.00
2017-12-29T00:33:43.016Z,78.20
2017-12-29T00:36:10.566Z,79.00
2017-12-29T00:38:38.016Z,78.00
2017-12-29T00:41:05.476Z,78.00
2017-12-29T00:43:32.976Z,78.20
2017-12-29T00:46:00.536Z,78.30
2017-12-29T00:48:28.097Z,78.50
2017-12-29T00:50:55.552Z,78.30
2017-12-29T00:53:23.093Z,78.30
2017-12-29T00:55:50.572Z,78.30
2017-12-29T00:58:18.028Z,78.40
2017-12-29T01:00:45.493Z,78.50
2017-12-29T01:03:13.046Z,78.50
2017-12-29T01:05:40.509Z,78.30
2017-12-29T01:08:07.975Z,78.10
2017-12-29T01:10:36.196Z,78.40
2017-12-29T01:13:03.669Z,78.40
2017-12-29T01:15:31.129Z,79.40
2017-12-29T01:17:58.594Z,78.30
2017-12-29T01:20:26.177Z,78.00
2017-12-29T01:22:54.445Z,78.20
2017-12-29T01:25:21.913Z,78.10
2017-12-29T01:27:50.128Z,78.30
2017-12-29T01:30:17.681Z,78.20
2017-12-29T01:32:45.137Z,78.40
2017-12-29T01:35:12.599Z,78.30
2017-12-29T01:37:40.061Z,78.60
2017-12-29T01:40:07.550Z,78.80
2017-12-29T01:42:35.012Z,78.60
2017-12-29T01:45:02.573Z,78.90
2017-12-29T01:50:22.733Z,78.90
2017-12-29T01:52:50.193Z,79.10
2017-12-29T01:55:17.652Z,79.10
2017-12-29T01:57:45.113Z,79.20
2017-12-29T02:00:12.586Z,79.10
2017-12-29T02:02:40.040Z,78.60
2017-12-29T02:05:07.522Z,78.60
2017-12-29T02:07:35.069Z,78.20
2017-12-29T02:10:02.542Z,78.40
2017-12-29T02:12:30.006Z,78.10
2017-12-29T02:14:58.256Z,78.00
2017-12-29T02:17:25.816Z,78.00
2017-12-29T02:19:53.271Z,78.00
2017-12-29T02:22:20.732Z,78.40
2017-12-29T02:24:48.184Z,78.50
2017-12-29T02:27:15.645Z,78.10
2017-12-29T02:29:43.203Z,78.30
2017-12-29T02:32:10.761Z,78.40
2017-12-29T02:34:38.321Z,78.10
2017-12-29T02:37:05.784Z,78.30
2017-12-29T02:39:33.337Z,77.50
2017-12-29T02:42:00.898Z,77.80
2017-12-29T02:44:28.360Z,77.90
2017-12-29T02:46:55.821Z,77.50
2017-12-29T02:49:24.044Z,78.60
2017-12-29T02:51:51.500Z,77.90
2017-12-29T02:54:19.059Z,77.30
2017-12-29T02:56:46.562Z,77.00
2017-12-29T02:59:14.053Z,77.20
2017-12-29T03:01:41.525Z,77.20
2017-12-29T03:04:08.985Z,77.40
2017-12-29T03:06:36.477Z,77.40
2017-12-29T03:09:04.041Z,76.90
2017-12-29T03:11:31.601Z,77.30
2017-12-29T03:13:59.158Z,77.40
2017-12-29T03:16:26.675Z,77.10
2017-12-29T03:18:54.125Z,77.20
2017-12-29T03:21:21.597Z,76.80
2017-12-29T03:23:49.088Z,77.40
2017-12-29T03:26:16.555Z,77.20
2017-12-29T03:28:44.017Z,77.80
2017-12-29T03:31:12.250Z,78.00
2017-12-29T03:33:39.705Z,77.90
2017-12-29T03:36:07.163Z,77.90
2017-12-29T03:38:34.661Z,77.80
2017-12-29T03:41:02.212Z,78.00
2017-12-29T03:43:29.772Z,77.50
2017-12-29T03:45:58.035Z,77.30
2017-12-29T03:48:25.492Z,77.30
2017-12-29T03:50:52.952Z,78.70
2017-12-29T03:53:20.417Z,77.70
2017-12-29T03:55:47.922Z,77.60
2017-12-29T03:58:15.387Z,77.10
2017-12-29T04:00:42.849Z,77.20
2017-12-29T04:03:10.335Z,77.50
2017-12-29T04:05:37.788Z,77.80
2017-12-29T04:08:05.361Z,77.90
2017-12-29T04:10:32.914Z,78.50
2017-12-29T04:13:01.147Z,79.00
2017-12-29T04:15:28.640Z,79.00
2017-12-29T04:17:56.113Z,79.10
2017-12-29T04:20:23.560Z,78.90
2017-12-29T04:22:51.026Z,78.90
2017-12-29T04:25:18.485Z,78.80
2017-12-29T04:27:45.944Z,78.50
2017-12-29T04:30:14.172Z,79.20
2017-12-29T04:32:41.634Z,79.10
2017-12-29T04:35:09.102Z,79.30
2017-12-29T04:37:36.576Z,79.50
2017-12-29T04:40:04.047Z,79.70
2017-12-29T04:42:32.269Z,80.40
2017-12-29T04:44:59.741Z,79.70
2017-12-29T04:47:27.196Z,80.70
2017-12-29T04:49:54.677Z,80.00
2017-12-29T04:52:22.133Z,79.60
2017-12-29T04:54:49.693Z,79.50
2017-12-29T04:57:17.149Z,79.80
2017-12-29T04:59:44.617Z,79.90
2017-12-29T05:02:12.074Z,79.50
2017-12-29T05:04:40.295Z,80.00
2017-12-29T05:07:07.769Z,79.60
2017-12-29T05:09:35.233Z,79.70
2017-12-29T05:12:02.705Z,79.50
2017-12-29T05:14:30.172Z,79.70
2017-12-29T05:16:57.632Z,79.90
2017-12-29T05:19:25.869Z,80.50
2017-12-29T05:21:53.329Z,79.80
2017-12-29T05:24:20.822Z,79.60
2017-12-29T05:26:48.269Z,79.80
2017-12-29T05:29:15.839Z,80.00
2017-12-29T05:31:43.302Z,80.00
2017-12-29T05:34:11.528Z,80.00
2017-12-29T05:36:38.999Z,80.00
2017-12-29T05:39:06.454Z,80.20
2017-12-29T05:41:33.900Z,80.10
2017-12-29T05:44:02.051Z,80.10
2017-12-29T05:46:29.556Z,80.60
2017-12-29T05:48:57.016Z,80.70
2017-12-29T05:51:24.572Z,80.70
2017-12-29T05:53:52.035Z,80.30
2017-12-29T05:56:19.497Z,80.20
2017-12-29T05:58:47.756Z,80.10
2017-12-29T06:01:15.217Z,80.10
2017-12-29T06:03:42.774Z,80.30
2017-12-29T06:06:10.236Z,79.90
2017-12-29T06:08:37.793Z,79.70
2017-12-29T06:11:05.245Z,80.00
2017-12-29T06:13:32.716Z,80.40
2017-12-29T06:16:00.980Z,81.30
2017-12-29T06:18:28.532Z,80.70
2017-12-29T06:20:55.986Z,80.80
2017-12-29T06:23:23.444Z,80.80
2017-12-29T06:25:50.896Z,80.40
2017-12-29T06:28:18.358Z,80.30
2017-12-29T06:30:45.824Z,79.90
2017-12-29T06:33:13.281Z,79.90
2017-12-29T06:35:40.841Z,80.00
2017-12-29T06:38:08.401Z,79.90
2017-12-29T06:40:35.958Z,79.70
2017-12-29T06:43:03.473Z,79.70
2017-12-29T06:45:30.939Z,79.20
2017-12-29T06:47:58.392Z,79.40
2017-12-29T06:50:25.868Z,78.80
2017-12-29T06:52:53.328Z,79.00
2017-12-29T06:55:20.899Z,79.20
2017-12-29T06:57:48.347Z,79.40
2017-12-29T07:00:15.814Z,79.40
2017-12-29T07:02:43.272Z,79.00
2017-12-29T07:05:10.821Z,79.20
2017-12-29T07:07:38.285Z,79.00
2017-12-29T07:10:05.808Z,78.90
2017-12-29T07:12:33.284Z,78.90
2017-12-29T07:15:00.849Z,79.00
2017-12-29T07:17:28.319Z,79.10
2017-12-29T07:19:55.824Z,78.80
2017-12-29T07:22:23.330Z,78.70
2017-12-29T07:24:50.872Z,78.60
2017-12-29T07:27:18.332Z,78.60
2017-12-29T07:29:45.793Z,78.50
2017-12-29T07:32:13.268Z,78.00
2017-12-29T07:34:40.736Z,78.40
2017-12-29T07:37:08.960Z,78.60
2017-12-29T07:39:36.429Z,78.40
2017-12-29T07:42:03.888Z,77.80
2017-12-29T07:44:31.447Z,77.80
2017-12-29T07:46:58.937Z,77.90
2017-12-29T07:49:27.175Z,78.40
2017-12-29T07:51:54.703Z,78.30
2017-12-29T07:54:22.156Z,78.30
2017-12-29T07:56:49.621Z,78.50
2017-12-29T07:59:17.130Z,79.00
2017-12-29T08:01:44.588Z,79.10
2017-12-29T08:04:12.048Z,78.00
2017-12-29T08:06:40.309Z,78.30
2017-12-29T08:09:07.864Z,78.10
2017-12-29T08:11:35.321Z,78.40
2017-12-29T08:14:02.876Z,77.80
2017-12-29T08:16:30.345Z,78.40
2017-12-29T08:18:57.812Z,78.00
2017-12-29T08:21:25.357Z,77.90
2017-12-29T08:23:52.812Z,78.10
2017-12-29T08:26:20.281Z,78.40
2017-12-29T08:28:48.500Z,78.50
2017-12-29T08:31:15.968Z,78.40
2017-12-29T08:33:43.512Z,78.50
2017-12-29T08:36:11.012Z,77.90
2017-12-29T08:38:38.473Z,78.40
2017-12-29T08:41:05.937Z,78.30
2017-12-29T08:43:33.485Z,77.90
2017-12-29T08:46:00.953Z,78.00
2017-12-29T08:48:28.421Z,78.10
2017-12-29T08:50:56.681Z,78.50
2017-12-29T08:53:24.157Z,78.50
2017-12-29T08:55:52.380Z,78.80
2017-12-29T08:58:19.847Z,78.70
2017-12-29T09:00:47.316Z,78.10
2017-12-29T09:03:14.785Z,78.30
2017-12-29T09:05:42.239Z,77.90
2017-12-29T09:08:09.701Z,77.00
2017-12-29T09:10:37.246Z,77.50
2017-12-29T09:13:04.705Z,77.70
2017-12-29T09:15:32.260Z,77.40
2017-12-29T09:17:59.793Z,77.80
2017-12-29T09:20:27.251Z,77.60
2017-12-29T09:22:54.720Z,77.90
2017-12-29T09:25:22.196Z,78.00
2017-12-29T09:27:49.660Z,77.70
2017-12-29T09:30:17.125Z,78.10
2017-12-29T09:32:45.437Z,78.10
2017-12-29T09:35:12.905Z,78.00
2017-12-29T09:37:40.454Z,78.10
2017-12-29T09:40:07.917Z,78.10
2017-12-29T09:42:35.413Z,77.80
2017-12-29T09:45:02.879Z,78.20
2017-12-29T09:47:30.385Z,77.90
2017-12-29T09:49:57.884Z,77.60
2017-12-29T09:52:25.344Z,77.60
2017-12-29T09:54:52.792Z,77.30
2017-12-29T09:57:20.348Z,77.40
2017-12-29T09:59:47.916Z,77.70
2017-12-29T10:02:15.428Z,77.10
2017-12-29T10:04:42.931Z,77.50
2017-12-29T10:07:10.405Z,77.50
2017-12-29T10:09:38.623Z,76.60
2017-12-29T10:12:06.090Z,76.70
2017-12-29T10:14:33.569Z,76.70
2017-12-29T10:17:01.137Z,76.80
2017-12-29T10:19:28.589Z,76.60
2017-12-29T10:21:56.155Z,76.80
2017-12-29T10:24:23.613Z,77.00
2017-12-29T10:26:51.076Z,76.80
2017-12-29T10:29:19.394Z,77.10
2017-12-29T10:31:46.848Z,76.10
2017-12-29T10:34:14.300Z,76.30
2017-12-29T10:36:41.773Z,76.40
2017-12-29T10:39:09.233Z,76.10
2017-12-29T10:41:36.690Z,76.20
2017-12-29T10:44:04.172Z,76.30
2017-12-29T10:46:31.691Z,76.10
2017-12-29T10:48:59.193Z,76.10
2017-12-29T10:51:26.649Z,75.90
2017-12-29T10:53:54.112Z,76.00
2017-12-29T10:56:21.569Z,76.30
2017-12-29T10:58:49.041Z,76.40
2017-12-29T11:01:17.260Z,75.30
2017-12-29T11:03:44.729Z,75.30
2017-12-29T11:06:12.188Z,75.30
2017-12-29T11:08:39.654Z,74.80
2017-12-29T11:11:07.115Z,75.00
2017-12-29T11:13:34.581Z,74.50
2017-12-29T11:16:02.050Z,75.10
2017-12-29T11:18:30.274Z,75.40
2017-12-29T11:20:57.740Z,74.80
2017-12-29T11:23:25.215Z,74.10
2017-12-29T11:25:52.789Z,73.80
2017-12-29T11:28:20.277Z,74.20
2017-12-29T11:30:47.796Z,73.60
2017-12-29T11:33:15.261Z,73.40
2017-12-29T11:35:42.722Z,71.10
2017-12-29T11:38:10.176Z,70.40
2017-12-29T11:40:37.641Z,70.90
2017-12-29T11:43:05.861Z,67.80
2017-12-29T11:45:33.333Z,67.70
2017-12-29T11:48:00.788Z,68.60
2017-12-29T11:50:28.280Z,68.90
2017-12-29T11:52:55.834Z,65.50
2017-12-29T11:55:23.291Z,62.90
2017-12-29T11:57:50.851Z,59.90
2017-12-29T12:00:18.300Z,61.60
2017-12-29T12:02:45.785Z,58.60
2017-12-29T12:05:14.020Z,59.60
2017-12-29T12:07:41.488Z,59.50
2017-12-29T12:10:09.053Z,61.90
2017-12-29T12:12:36.508Z,62.60
2017-12-29T12:15:03.957Z,62.70
2017-12-29T12:17:31.516Z,62.60
2017-12-29T12:19:58.969Z,62.60
2017-12-29T12:22:26.536Z,63.80
2017-12-29T12:24:53.992Z,64.30
2017-12-29T12:27:21.449Z,65.90
2017-12-29T12:29:48.901Z,66.70
2017-12-29T12:32:16.382Z,66.70
2017-12-29T12:34:44.608Z,68.30
2017-12-29T12:37:12.069Z,68.30
2017-12-29T12:39:39.605Z,68.20
2017-12-29T12:42:07.053Z,67.70
2017-12-29T12:44:34.508Z,68.30
2017-12-29T12:47:01.965Z,67.60
2017-12-29T12:49:29.430Z,64.80
2017-12-29T12:51:56.891Z,64.20
2017-12-29T12:54:24.357Z,64.20
2017-12-29T12:56:51.812Z,65.60
2017-12-29T12:59:19.268Z,66.30
2017-12-29T13:01:46.731Z,66.90
2017-12-29T13:04:14.216Z,67.40
2017-12-29T13:06:41.668Z,66.40
2017-12-29T13:09:09.124Z,63.20
2017-12-29T13:11:36.589Z,62.60
2017-12-29T13:14:05.555Z,60.90
2017-12-29T13:16:33.021Z,60.90
2017-12-29T13:19:00.482Z,60.00
2017-12-29T13:21:27.937Z,61.30
2017-12-29T13:23:55.500Z,62.70
2017-12-29T13:26:23.066Z,64.50
2017-12-29T13:28:50.527Z,65.80
2017-12-29T13:31:18.076Z,66.30
2017-12-29T13:33:45.539Z,66.70
2017-12-29T13:36:12.988Z,66.90
2017-12-29T13:38:40.448Z,67.40
2017-12-29T13:41:08.008Z,67.60
2017-12-29T13:43:35.471Z,67.90
2017-12-29T13:46:02.948Z,68.20
2017-12-29T13:48:31.191Z,69.10
2017-12-29T13:50:58.695Z,69.00
2017-12-29T13:53:26.226Z,68.80
2017-12-29T13:55:53.778Z,69.30
2017-12-29T13:58:21.241Z,68.50
2017-12-29T14:00:48.692Z,68.50
2017-12-29T14:03:16.165Z,68.80
2017-12-29T14:05:44.389Z,68.80
2017-12-29T14:08:11.848Z,68.70
2017-12-29T14:10:39.335Z,68.50
2017-12-29T14:13:06.896Z,68.70
2017-12-29T14:15:34.357Z,68.90
2017-12-29T14:18:01.837Z,68.70
2017-12-29T14:20:29.361Z,69.50
2017-12-29T14:22:56.824Z,68.60
2017-12-29T14:25:24.293Z,68.70
2017-12-29T14:27:52.524Z,69.20
2017-12-29T14:30:20.008Z,68.40
2017-12-29T14:32:48.982Z,68.60
2017-12-29T14:35:16.457Z,68.60
2017-12-29T14:37:43.913Z,68.40
2017-12-29T14:40:11.393Z,68.40
2017-12-29T14:42:39.609Z,68.90
2017-12-29T14:45:07.089Z,68.90
2017-12-29T14:47:34.548Z,68.40
2017-12-29T14:50:02.014Z,68.60
2017-12-29T14:52:29.487Z,68.60
2017-12-29T14:54:57.714Z,69.00
2017-12-29T14:57:25.167Z,68.70
2017-12-29T14:59:52.636Z,68.90
2017-12-29T15:02:20.095Z,69.60
2017-12-29T15:04:47.556Z,70.00
2017-12-29T15:07:15.013Z,70.10
2017-12-29T15:09:42.476Z,70.50
2017-12-29T15:12:09.945Z,70.70
2017-12-29T15:14:38.921Z,71.40
2017-12-29T15:17:06.372Z,71.30
2017-12-29T15:19:33.838Z,71.60
2017-12-29T15:22:01.301Z,72.10
2017-12-29T15:24:28.761Z,72.30
2017-12-29T15:26:56.229Z,72.50
2017-12-29T15:29:23.689Z,72.70
2017-12-29T15:31:52.004Z,72.30
2017-12-29T15:34:19.452Z,72.30
2017-12-29T15:36:46.980Z,72.10
2017-12-29T15:39:15.207Z,72.10
2017-12-29T15:41:42.757Z,72.00
2017-12-29T15:44:10.209Z,72.40
2017-12-29T15:46:37.661Z,72.50
2017-12-29T15:49:05.120Z,72.30
2017-12-29T15:51:33.493Z,72.80
2017-12-29T15:54:00.956Z,72.80
2017-12-29T15:56:28.462Z,73.30
2017-12-29T15:58:56.016Z,73.20
2017-12-29T16:01:31.020Z,73.40
2017-12-29T16:03:58.508Z,73.80
2017-12-29T16:06:26.780Z,73.60
2017-12-29T16:08:54.246Z,73.60
2017-12-29T16:11:21.701Z,73.20
2017-12-29T16:13:49.290Z,74.10
2017-12-29T16:16:17.521Z,73.40
2017-12-29T16:18:45.089Z,73.30
2017-12-29T16:21:12.653Z,73.60
2017-12-29T16:23:40.212Z,73.70
2017-12-29T16:26:07.690Z,73.60
2017-12-29T16:28:35.934Z,73.20
2017-12-29T16:31:03.458Z,73.10
2017-12-29T16:33:30.958Z,73.10
2017-12-29T16:35:58.433Z,73.70
2017-12-29T16:38:26.662Z,74.10
2017-12-29T16:40:54.133Z,74.00
2017-12-29T16:43:21.602Z,73.90
2017-12-29T16:45:49.167Z,74.40
2017-12-29T16:48:16.621Z,73.10
2017-12-29T16:50:44.097Z,73.10
2017-12-29T16:53:12.332Z,73.20
2017-12-29T16:55:39.834Z,73.20
2017-12-29T16:58:08.060Z,73.00
2017-12-29T17:00:35.585Z,73.00
2017-12-29T17:03:03.041Z,73.00
2017-12-29T17:05:30.513Z,73.00
2017-12-29T17:07:57.981Z,73.00
2017-12-29T17:10:25.449Z,72.70
2017-12-29T17:12:52.913Z,73.00
2017-12-29T17:15:20.385Z,73.10
2017-12-29T17:17:47.864Z,73.00
2017-12-29T17:20:16.113Z,73.20
2017-12-29T17:22:43.584Z,73.20
2017-12-29T17:25:11.813Z,73.20
2017-12-29T17:27:39.281Z,73.20
2017-12-29T17:30:07.763Z,73.10
2017-12-29T17:32:35.229Z,73.00
2017-12-29T17:35:02.799Z,72.90
2017-12-29T17:37:30.358Z,73.10
2017-12-29T17:39:57.809Z,73.50
2017-12-29T17:42:25.274Z,73.10
2017-12-29T17:44:52.825Z,73.10
2017-12-29T17:47:20.389Z,73.30
2017-12-29T17:49:47.946Z,73.40
2017-12-29T17:52:15.406Z,73.50
2017-12-29T17:54:42.965Z,73.40
2017-12-29T17:57:10.525Z,73.60
2017-12-29T17:59:37.980Z,73.80
2017-12-29T18:02:05.433Z,73.40
2017-12-29T18:04:32.897Z,73.70
2017-12-29T18:07:00.375Z,73.60
2017-12-29T18:09:28.606Z,73.50
2017-12-29T18:11:56.085Z,73.50
2017-12-29T18:14:23.592Z,73.70
2017-12-29T18:16:51.046Z,74.60
2017-12-29T18:19:18.507Z,73.90
2017-12-29T18:21:46.013Z,73.90
2017-12-29T18:24:13.572Z,73.80
2017-12-29T18:26:41.045Z,74.10
2017-12-29T18:29:09.279Z,73.90
2017-12-29T18:31:36.759Z,73.70
2017-12-29T18:34:04.216Z,74.10
2017-12-29T18:36:31.696Z,74.30
2017-12-29T18:38:59.949Z,74.40
2017-12-29T18:41:27.432Z,74.30
2017-12-29T18:43:55.728Z,74.60
2017-12-29T18:46:23.188Z,74.50
2017-12-29T18:48:50.692Z,74.30
2017-12-29T18:51:18.152Z,74.60
2017-12-29T18:53:46.432Z,75.10
2017-12-29T18:56:13.918Z,75.00
2017-12-29T18:58:41.387Z,75.10
2017-12-29T19:01:08.841Z,75.90
2017-12-29T19:03:36.352Z,75.90
2017-12-29T19:06:03.823Z,76.50
2017-12-29T19:08:32.040Z,75.50
2017-12-29T19:10:59.548Z,75.40
2017-12-29T19:13:26.996Z,75.20
2017-12-29T19:15:54.663Z,75.50
2017-12-29T19:18:22.133Z,75.40
2017-12-29T19:20:50.377Z,75.10
2017-12-29T19:23:17.879Z,75.00
2017-12-29T19:25:45.346Z,75.00
2017-12-29T19:28:12.820Z,74.90
2017-12-29T19:30:40.277Z,74.80
2017-12-29T19:33:07.748Z,74.90
2017-12-29T19:35:35.202Z,75.10
2017-12-29T19:38:02.669Z,74.90
2017-12-29T19:40:30.126Z,75.00
2017-12-29T19:42:57.605Z,75.00
2017-12-29T19:45:25.061Z,74.90
2017-12-29T19:47:52.545Z,74.90
2017-12-29T19:50:20.814Z,74.90
2017-12-29T19:52:49.045Z,75.00
2017-12-29T19:55:16.499Z,75.00
2017-12-29T19:57:43.956Z,74.80
2017-12-29T20:00:11.441Z,74.80
2017-12-29T20:02:38.933Z,75.00
2017-12-29T20:05:06.421Z,74.80
2017-12-29T20:07:33.909Z,75.00
2017-12-29T20:10:01.373Z,75.20
2017-12-29T20:12:29.596Z,74.80
2017-12-29T20:14:57.077Z,74.80
2017-12-29T20:17:24.533Z,74.70
2017-12-29T20:19:52.016Z,74.70
2017-12-29T20:22:19.468Z,74.90
2017-12-29T20:24:47.036Z,74.90
2017-12-29T20:27:14.512Z,74.90
2017-12-29T20:29:42.805Z,75.20
2017-12-29T20:32:10.221Z,75.10
2017-12-29T20:34:37.701Z,75.20
2017-12-29T20:37:05.157Z,75.20
2017-12-29T20:39:33.397Z,75.00
2017-12-29T20:42:00.865Z,75.00
2017-12-29T20:44:28.419Z,75.00
2017-12-29T20:46:55.980Z,74.90
2017-12-29T20:49:23.541Z,74.60
2017-12-29T20:51:51.012Z,74.40
2017-12-29T20:54:19.251Z,74.60
2017-12-29T20:56:46.788Z,74.60
2017-12-29T20:59:14.983Z,74.60
2017-12-29T21:01:42.466Z,74.50
2017-12-29T21:04:09.924Z,74.60
2017-12-29T21:06:38.197Z,74.50
2017-12-29T21:09:05.669Z,74.40
2017-12-29T21:11:33.910Z,74.20
2017-12-29T21:14:01.373Z,74.10
2017-12-29T21:16:28.840Z,74.50
2017-12-29T21:18:56.501Z,74.60
2017-12-29T21:21:24.052Z,74.80
2017-12-29T21:23:51.554Z,75.00
2017-12-29T21:26:19.022Z,74.90
2017-12-29T21:28:46.489Z,74.60
2017-12-29T21:31:13.945Z,74.50
2017-12-29T21:33:41.395Z,74.80
2017-12-29T21:36:08.847Z,74.60
2017-12-29T21:38:36.364Z,74.60
2017-12-29T21:41:04.581Z,74.70
2017-12-29T21:43:32.046Z,74.60
2017-12-29T21:45:59.536Z,74.80
2017-12-29T21:48:27.108Z,75.00
2017-12-29T21:50:54.566Z,75.10
2017-12-29T21:53:22.804Z,76.10
2017-12-29T21:55:50.260Z,75.20
2017-12-29T21:58:17.747Z,75.30
2017-12-29T22:00:45.209Z,75.40
2017-12-29T22:03:12.759Z,75.30
2017-12-29T22:05:40.225Z,75.30
2017-12-29T22:08:08.458Z,75.80
2017-12-29T22:10:36.001Z,75.30
2017-12-29T22:13:03.473Z,75.30
2017-12-29T22:15:30.952Z,75.10
2017-12-29T22:17:58.420Z,75.30
2017-12-29T22:20:25.888Z,75.40
2017-12-29T22:22:54.112Z,75.90
2017-12-29T22:25:21.568Z,75.30
2017-12-29T22:27:49.032Z,75.30
2017-12-29T22:30:16.525Z,76.20
2017-12-29T22:32:44.081Z,75.40
2017-12-29T22:35:11.544Z,75.30
2017-12-29T22:37:39.005Z,75.30
2017-12-29T22:40:07.260Z,75.30
2017-12-29T22:42:34.776Z,75.30
2017-12-29T22:45:02.233Z,75.10
2017-12-29T22:47:29.692Z,75.10
2017-12-29T22:49:57.150Z,75.10
2017-12-29T22:52:24.631Z,75.00
2017-12-29T22:54:52.105Z,74.90
2017-12-29T22:57:19.661Z,75.10
2017-12-29T22:59:47.119Z,75.00
2017-12-29T23:02:14.590Z,74.90
2017-12-29T23:04:42.049Z,74.80
2017-12-29T23:07:09.512Z,75.00
2017-12-29T23:09:37.729Z,74.90
2017-12-29T23:12:05.231Z,74.80
2017-12-29T23:14:32.697Z,74.80
2017-12-29T23:17:00.916Z,74.90
2017-12-29T23:19:28.397Z,74.80
2017-12-29T23:21:55.861Z,75.00
2017-12-29T23:24:23.434Z,74.80
2017-12-29T23:26:50.897Z,74.70
2017-12-29T23:29:19.164Z,75.00
2017-12-29T23:31:46.636Z,74.60
2017-12-29T23:34:14.872Z,74.50
2017-12-29T23:36:42.328Z,74.50
2017-12-29T23:39:09.794Z,74.60
2017-12-29T23:41:37.256Z,74.70
2017-12-29T23:44:04.721Z,74.60
2017-12-29T23:46:32.284Z,74.60
2017-12-29T23:48:59.765Z,74.80
2017-12-29T23:51:28.033Z,74.70
2017-12-29T23:53:56.289Z,74.90
2017-12-29T23:56:23.790Z,74.80
2017-12-29T23:58:51.979Z,74.90
